createdAt,value
2023-01-13T00:00:00.882Z,59.07
2023-01-13T00:23:02.200Z,58.73
2023-01-13T00:29:24.806Z,58.94
2023-01-13T00:30:26.003Z,58.63
2023-01-13T00:47:34.493Z,59.94
2023-01-13T00:57:19.457Z,60.59
2023-01-13T01:38:35.401Z,60.61
2023-01-13T01:39:34.264Z,61.33
2023-01-13T01:48:17.910Z,60.72
2023-01-13T01:51:46.409Z,61.24
2023-01-13T01:55:32.178Z,60.93
2023-01-13T02:23:25.066Z,60.51
2023-01-13T02:41:05.489Z,60.54
2023-01-13T02:44:39.200Z,60.23
2023-01-13T02:52:04.038Z,59.97
2023-01-13T02:55:23.934Z,58.94
2023-01-13T02:57:52.290Z,59.04
2023-01-13T03:16:34.121Z,59.12
2023-01-13T03:29:46.197Z,58.81
2023-01-13T03:32:34.293Z,59.53
2023-01-13T03:50:34.860Z,60.38
2023-01-13T03:52:04.947Z,60.17
2023-01-13T03:52:30.905Z,59.97
2023-01-13T03:55:37.511Z,59.66
2023-01-13T04:08:22.674Z,61.28
2023-01-13T04:22:09.018Z,59.99
2023-01-13T04:27:03.771Z,60.06
2023-01-13T06:08:59.470Z,58.01
2023-01-13T06:10:00.464Z,58.01
2023-01-13T06:17:44.337Z,57.46
2023-01-13T06:32:23.472Z,58.21
2023-01-13T07:00:07.144Z,57.08
2023-01-13T07:01:09.154Z,57.08
2023-01-13T07:11:50.799Z,56.67
2023-01-13T07:17:39.284Z,56.46
2023-01-13T07:27:37.480Z,56.49
2023-01-13T07:28:38.693Z,56.57
2023-01-13T07:29:40.024Z,56.57
2023-01-13T07:30:38.855Z,56.77
2023-01-13T07:31:38.744Z,56.98
2023-01-13T07:32:38.705Z,57.18
2023-01-13T07:33:38.798Z,57.06
2023-01-13T07:34:38.858Z,57.16
2023-01-13T07:35:38.968Z,56.95
2023-01-13T07:36:39.052Z,56.74
2023-01-13T07:37:39.152Z,56.85
2023-01-13T07:38:39.178Z,56.95
2023-01-13T07:39:39.285Z,57.06
2023-01-13T07:40:39.423Z,57.26
2023-01-13T07:41:39.482Z,57.36
2023-01-13T07:42:39.565Z,57.46
2023-01-13T07:43:39.703Z,57.46
2023-01-13T07:44:39.809Z,57.36
2023-01-13T07:45:39.924Z,57.34
2023-01-13T07:46:39.918Z,57.34
2023-01-13T07:47:40.067Z,57.44
2023-01-13T07:48:41.004Z,57.44
2023-01-13T07:49:40.215Z,57.44
2023-01-13T07:50:41.576Z,57.34
2023-01-13T07:55:26.948Z,57.26
2023-01-13T07:56:28.002Z,57.36
2023-01-13T07:57:28.031Z,57.46
2023-01-13T07:58:28.093Z,57.67
2023-01-13T07:59:28.270Z,57.36
2023-01-13T08:06:12.299Z,56.44
2023-01-13T08:07:13.412Z,56.46
2023-01-13T08:08:13.450Z,56.54
2023-01-13T08:09:13.538Z,56.64
2023-01-13T08:10:13.570Z,56.54
2023-01-13T08:11:13.662Z,56.64
2023-01-13T08:12:13.750Z,56.74
2023-01-13T08:13:13.843Z,56.74
2023-01-13T08:14:13.938Z,56.72
2023-01-13T08:15:14.055Z,56.62
2023-01-13T08:16:14.157Z,56.72
2023-01-13T08:17:14.167Z,56.93
2023-01-13T08:18:14.223Z,56.93
2023-01-13T08:19:14.302Z,56.93
2023-01-13T08:20:14.422Z,56.82
2023-01-13T08:21:14.497Z,56.82
2023-01-13T08:22:14.542Z,56.49
2023-01-13T08:23:14.698Z,56.70
2023-01-13T08:24:14.702Z,56.59
2023-01-13T08:25:14.803Z,56.59
2023-01-13T08:26:14.888Z,56.59
2023-01-13T08:27:14.976Z,56.08
2023-01-13T08:28:15.098Z,56.59
2023-01-13T08:29:15.325Z,56.59
2023-01-13T08:30:15.225Z,56.79
2023-01-13T08:31:15.345Z,56.79
2023-01-13T08:32:15.374Z,56.38
2023-01-13T08:33:15.456Z,56.18
2023-01-13T08:34:15.550Z,56.18
2023-01-13T08:35:15.815Z,56.38
2023-01-13T08:36:15.695Z,55.66
2023-01-13T08:37:15.813Z,55.57
2023-01-13T08:38:15.892Z,55.64
2023-01-13T08:39:15.952Z,55.85
2023-01-13T08:40:36.337Z,55.64
2023-01-13T08:41:16.115Z,55.64
2023-01-13T08:42:16.190Z,55.85
2023-01-13T08:43:16.297Z,55.95
2023-01-13T08:44:16.323Z,56.05
2023-01-13T08:45:16.447Z,55.85
2023-01-13T08:46:17.424Z,55.74
2023-01-13T08:47:16.601Z,55.74
2023-01-13T08:48:16.677Z,55.54
2023-01-13T08:49:16.810Z,55.54
2023-01-13T08:50:16.908Z,55.74
2023-01-13T08:51:16.951Z,55.85
2023-01-13T08:52:17.049Z,55.54
2023-01-13T08:53:17.151Z,55.43
2023-01-13T08:54:17.225Z,55.43
2023-01-13T08:55:17.317Z,55.23
2023-01-13T08:56:17.381Z,55.43
2023-01-13T08:57:17.523Z,55.23
2023-01-13T08:58:17.558Z,54.92
2023-01-13T08:59:17.772Z,54.51
2023-01-13T09:00:17.775Z,54.51
2023-01-13T09:01:17.988Z,54.51
2023-01-13T09:02:18.170Z,54.51
2023-01-13T09:03:18.012Z,54.41
2023-01-13T09:04:18.323Z,54.41
2023-01-13T09:05:18.161Z,54.30
2023-01-13T09:06:18.269Z,54.41
2023-01-13T09:07:18.354Z,54.79
2023-01-13T09:08:18.415Z,54.82
2023-01-13T09:09:18.494Z,54.92
2023-01-13T09:10:18.578Z,54.92
2023-01-13T09:11:18.617Z,54.92
2023-01-13T09:12:18.715Z,55.02
2023-01-13T09:13:18.792Z,55.23
2023-01-13T09:14:18.860Z,55.10
2023-01-13T09:15:19.301Z,55.00
2023-01-13T09:16:19.206Z,54.69
2023-01-13T09:17:19.104Z,54.28
2023-01-13T09:18:19.262Z,54.18
2023-01-13T09:19:19.368Z,54.28
2023-01-13T09:20:19.476Z,54.59
2023-01-13T09:21:20.222Z,54.90
2023-01-13T09:22:19.501Z,55.00
2023-01-13T09:23:19.661Z,55.10
2023-01-13T09:24:19.772Z,55.21
2023-01-13T09:26:57.208Z,55.64
2023-01-13T09:27:57.904Z,55.74
2023-01-13T09:29:00.832Z,55.23
2023-01-13T09:29:57.965Z,55.33
2023-01-13T09:30:58.124Z,55.43
2023-01-13T09:31:58.140Z,55.33
2023-01-13T09:32:58.231Z,55.13
2023-01-13T09:33:58.328Z,54.69
2023-01-13T09:34:58.629Z,54.90
2023-01-13T09:35:58.563Z,55.21
2023-01-13T09:36:58.572Z,55.62
2023-01-13T09:37:58.669Z,56.20
2023-01-13T09:41:58.179Z,57.03
2023-01-13T09:44:48.414Z,57.33
2023-01-13T10:25:17.401Z,66.14
2023-01-13T10:31:03.691Z,66.55
2023-01-13T10:39:20.007Z,65.42
2023-01-13T10:49:24.704Z,64.29
2023-01-13T10:50:24.114Z,64.47
2023-01-13T12:12:31.482Z,74.32
2023-01-13T12:13:32.978Z,74.84
2023-01-13T12:14:32.387Z,74.84
2023-01-13T12:15:32.469Z,74.84
2023-01-13T12:16:32.675Z,74.74
2023-01-13T12:17:32.595Z,74.53
2023-01-13T12:18:32.772Z,74.43
2023-01-13T12:19:32.753Z,74.32
2023-01-13T12:20:33.692Z,74.22
2023-01-13T12:21:32.936Z,73.98
2023-01-13T12:22:35.371Z,74.40
2023-01-13T12:25:51.043Z,74.94
2023-01-13T12:26:51.453Z,74.94
2023-01-13T12:27:49.420Z,75.04
2023-01-13T12:31:49.718Z,74.77
2023-01-13T12:43:24.999Z,76.04
2023-01-13T12:46:38.627Z,76.14
2023-01-13T12:52:15.885Z,77.06
2023-01-13T13:16:46.176Z,78.58
2023-01-13T13:17:47.015Z,78.68
2023-01-13T14:19:28.839Z,75.15
2023-01-13T16:52:14.877Z,75.36
2023-01-13T16:53:26.411Z,75.26
2023-01-13T16:54:15.670Z,75.36
2023-01-13T16:55:15.910Z,75.77
2023-01-13T16:56:15.864Z,75.87
2023-01-13T16:59:28.747Z,75.56
2023-01-13T20:55:40.194Z,84.08
2023-01-13T20:56:41.038Z,84.05
2023-01-13T20:57:41.249Z,84.05
2023-01-13T20:58:41.245Z,84.05
2023-01-13T20:59:41.310Z,83.84
2023-01-13T21:00:41.449Z,83.53
2023-01-13T21:13:42.268Z,82.90
2023-01-13T21:14:43.396Z,83.01
2023-01-13T21:15:43.386Z,83.01
2023-01-13T21:16:43.507Z,81.77
2023-01-13T21:17:43.548Z,81.46
2023-01-13T21:18:43.631Z,81.35
2023-01-13T21:19:43.705Z,80.84
2023-01-13T21:20:43.810Z,80.43
2023-01-13T21:21:43.887Z,80.22
2023-01-13T21:22:44.026Z,80.11
2023-01-13T21:23:44.048Z,79.87
2023-01-13T21:24:44.144Z,79.77
2023-01-13T21:25:44.207Z,79.25
2023-01-13T21:26:44.290Z,79.25
2023-01-13T21:27:45.216Z,79.25
2023-01-13T21:32:02.693Z,78.88
2023-01-13T21:33:04.785Z,78.98
2023-01-13T21:45:45.349Z,80.60
2023-01-13T21:55:22.367Z,80.85
2023-01-13T21:56:34.447Z,80.85
2023-01-13T22:14:58.265Z,82.13
2023-01-13T22:24:42.319Z,82.40
2023-01-13T22:45:52.250Z,82.46
2023-01-13T22:46:51.757Z,82.36
2023-01-13T23:12:17.974Z,81.54
2023-01-13T23:13:04.583Z,81.54
2023-01-13T23:14:13.357Z,81.49
2023-01-13T23:15:59.983Z,81.49
2023-01-13T23:16:14.382Z,81.49
2023-01-13T23:17:07.250Z,81.35
2023-01-13T23:22:24.336Z,80.43
2023-01-13T23:23:29.530Z,80.53
2023-01-13T23:34:10.911Z,80.67
2023-01-13T23:35:11.955Z,80.67
2023-01-13T23:36:12.033Z,80.74
2023-01-13T23:37:12.094Z,80.74
2023-01-13T23:38:12.251Z,80.63
2023-01-13T23:39:12.220Z,80.43
2023-01-13T23:40:12.315Z,80.29
2023-01-13T23:41:12.397Z,80.18
2023-01-13T23:42:12.492Z,79.77
2023-01-13T23:43:12.580Z,79.46
2023-01-13T23:44:12.657Z,79.36
2023-01-13T23:45:12.751Z,79.11
2023-01-13T23:46:12.872Z,79.11
2023-01-13T23:47:12.919Z,78.70
